Valdosta/Moody AFB, Georgia
Current Conditions -  °F | °C
As of 4:58 PM on Thursday 23 Oct 2014 (Local Time) from KVAD Reporting Station
Clear Clear  
Wind Chill: 73°   Ceiling: Unl
Heat Index: 73°   Visibility: 10mi
Dew Point: 40°   Wind: 8mph
Humidity: 30%   Direction: 30°NNE
Pressure: 30"   Gusts: NA
Location:  30.96°N, 83.2°W
Report Text: KVAD 232058Z AUTO 03007KT 10SM CLR 23/04 A3000 RMK AO2 SLP161 T02300044 57015 $
Loading
Personal Weather Stations






























Interactive Weather Map
Tropical Storm Tracking
New forecast layout! Learn more

10-Day Weather Forecast

Advertisements
Track Severe Weather on mobile